Terminal Aerodrome Forecast
Issued by NWS Chicago, IL

Home | Current Version | Previous Version | Text Only | Print | Product List | Glossary On
Versions: 1 2 3 4 5 6 7 8 9 10 11 12 13 14 15 16 17 18 19 20 21 22 23 24
000
FTUS43 KLOT 261120
TAFRFD
TAF
KRFD 261120Z 2612/2712 26007KT P6SM BKN250
     FM261500 30015G24KT P6SM BKN050
     FM262200 33012G18KT P6SM VCSH SCT045 BKN060
     FM270100 02010KT P6SM SCT050
     FM270400 29005KT P6SM SKC=

USA.gov is the U.S. government's official web portal to all federal, state and local government web resources and services.